sensor_id;sensor_type;location;lat;lon;timestamp;P1;durP1;ratioP1;P2;durP2;ratioP2
485;SDS011;229;48.734;9.340;2024-03-08T00:01:48;36.75;;;20.80;;
485;SDS011;229;48.734;9.340;2024-03-08T00:04:15;40.55;;;21.30;;
485;SDS011;229;48.734;9.340;2024-03-08T00:06:42;33.53;;;20.30;;
485;SDS011;229;48.734;9.340;2024-03-08T00:09:12;30.70;;;19.60;;
485;SDS011;229;48.734;9.340;2024-03-08T00:11:40;35.78;;;21.23;;
485;SDS011;229;48.734;9.340;2024-03-08T00:14:08;33.03;;;18.30;;
485;SDS011;229;48.734;9.340;2024-03-08T00:16:35;32.80;;;19.60;;
485;SDS011;229;48.734;9.340;2024-03-08T00:19:02;32.05;;;19.25;;
485;SDS011;229;48.734;9.340;2024-03-08T00:21:29;29.85;;;18.80;;
485;SDS011;229;48.734;9.340;2024-03-08T00:23:56;29.75;;;18.70;;
485;SDS011;229;48.734;9.340;2024-03-08T00:26:25;35.72;;;21.55;;
485;SDS011;229;48.734;9.340;2024-03-08T00:28:52;31.88;;;20.25;;
485;SDS011;229;48.734;9.340;2024-03-08T00:31:19;34.17;;;20.45;;
485;SDS011;229;48.734;9.340;2024-03-08T00:33:46;30.20;;;18.95;;
485;SDS011;229;48.734;9.340;2024-03-08T00:36:14;31.83;;;19.92;;
485;SDS011;229;48.734;9.340;2024-03-08T00:38:41;30.60;;;19.35;;
485;SDS011;229;48.734;9.340;2024-03-08T00:41:08;32.78;;;20.35;;
485;SDS011;229;48.734;9.340;2024-03-08T00:43:37;28.80;;;19.10;;
485;SDS011;229;48.734;9.340;2024-03-08T00:46:04;31.40;;;20.35;;
485;SDS011;229;48.734;9.340;2024-03-08T00:48:31;30.38;;;18.38;;
485;SDS011;229;48.734;9.340;2024-03-08T00:50:58;35.72;;;21.05;;
485;SDS011;229;48.734;9.340;2024-03-08T00:53:27;36.72;;;21.05;;
485;SDS011;229;48.734;9.340;2024-03-08T00:55:54;35.63;;;19.20;;
485;SDS011;229;48.734;9.340;2024-03-08T00:58:21;30.85;;;19.83;;
485;SDS011;229;48.734;9.340;2024-03-08T01:00:50;35.90;;;21.02;;
485;SDS011;229;48.734;9.340;2024-03-08T01:03:17;30.15;;;18.90;;
485;SDS011;229;48.734;9.340;2024-03-08T01:05:44;33.30;;;20.00;;
485;SDS011;229;48.734;9.340;2024-03-08T01:08:11;38.50;;;21.13;;
485;SDS011;229;48.734;9.340;2024-03-08T01:10:39;33.30;;;20.63;;
485;SDS011;229;48.734;9.340;2024-03-08T01:13:06;33.15;;;20.27;;
485;SDS011;229;48.734;9.340;2024-03-08T01:15:34;35.10;;;20.13;;
485;SDS011;229;48.734;9.340;2024-03-08T01:18:03;30.40;;;18.48;;
485;SDS011;229;48.734;9.340;2024-03-08T01:20:30;33.30;;;20.23;;
485;SDS011;229;48.734;9.340;2024-03-08T01:22:57;30.15;;;18.45;;
485;SDS011;229;48.734;9.340;2024-03-08T01:25:24;30.67;;;19.30;;
485;SDS011;229;48.734;9.340;2024-03-08T01:27:52;34.28;;;20.13;;
485;SDS011;229;48.734;9.340;2024-03-08T01:30:19;34.47;;;19.98;;
485;SDS011;229;48.734;9.340;2024-03-08T01:32:46;35.00;;;19.63;;
485;SDS011;229;48.734;9.340;2024-03-08T01:35:15;32.92;;;18.55;;
485;SDS011;229;48.734;9.340;2024-03-08T01:37:43;36.15;;;20.30;;
485;SDS011;229;48.734;9.340;2024-03-08T01:40:10;34.50;;;20.05;;
485;SDS011;229;48.734;9.340;2024-03-08T01:42:39;30.25;;;18.10;;
485;SDS011;229;48.734;9.340;2024-03-08T01:45:06;31.10;;;17.98;;
485;SDS011;229;48.734;9.340;2024-03-08T01:47:34;29.80;;;17.90;;
485;SDS011;229;48.734;9.340;2024-03-08T01:50:01;29.20;;;17.75;;
485;SDS011;229;48.734;9.340;2024-03-08T01:52:32;34.45;;;18.70;;
485;SDS011;229;48.734;9.340;2024-03-08T01:55:00;28.92;;;17.45;;
485;SDS011;229;48.734;9.340;2024-03-08T01:57:29;30.50;;;17.05;;
485;SDS011;229;48.734;9.340;2024-03-08T01:59:58;34.65;;;17.20;;
485;SDS011;229;48.734;9.340;2024-03-08T02:02:28;28.33;;;16.92;;
485;SDS011;229;48.734;9.340;2024-03-08T02:04:57;25.90;;;16.50;;
485;SDS011;229;48.734;9.340;2024-03-08T02:07:24;30.52;;;17.63;;
485;SDS011;229;48.734;9.340;2024-03-08T02:09:53;25.77;;;16.77;;
485;SDS011;229;48.734;9.340;2024-03-08T02:12:20;31.83;;;17.48;;
485;SDS011;229;48.734;9.340;2024-03-08T02:14:47;32.90;;;17.60;;
485;SDS011;229;48.734;9.340;2024-03-08T02:17:14;27.90;;;15.98;;
485;SDS011;229;48.734;9.340;2024-03-08T02:19:42;25.52;;;16.50;;
485;SDS011;229;48.734;9.340;2024-03-08T02:22:10;29.58;;;18.35;;
485;SDS011;229;48.734;9.340;2024-03-08T02:24:37;28.40;;;16.50;;
485;SDS011;229;48.734;9.340;2024-03-08T02:27:05;25.05;;;16.00;;
485;SDS011;229;48.734;9.340;2024-03-08T02:29:32;32.55;;;17.25;;
485;SDS011;229;48.734;9.340;2024-03-08T02:32:00;26.05;;;16.30;;
485;SDS011;229;48.734;9.340;2024-03-08T02:34:28;26.20;;;15.73;;
485;SDS011;229;48.734;9.340;2024-03-08T02:36:56;26.55;;;16.17;;
485;SDS011;229;48.734;9.340;2024-03-08T02:39:24;26.17;;;16.65;;
485;SDS011;229;48.734;9.340;2024-03-08T02:41:52;28.00;;;17.95;;
485;SDS011;229;48.734;9.340;2024-03-08T02:44:20;30.77;;;18.23;;
485;SDS011;229;48.734;9.340;2024-03-08T02:46:47;28.13;;;16.67;;
485;SDS011;229;48.734;9.340;2024-03-08T02:49:15;28.27;;;17.52;;
485;SDS011;229;48.734;9.340;2024-03-08T02:51:42;31.77;;;17.70;;
485;SDS011;229;48.734;9.340;2024-03-08T02:54:11;31.90;;;18.13;;
485;SDS011;229;48.734;9.340;2024-03-08T02:56:39;31.33;;;18.77;;
485;SDS011;229;48.734;9.340;2024-03-08T02:59:07;31.92;;;18.00;;
485;SDS011;229;48.734;9.340;2024-03-08T03:01:34;33.50;;;18.95;;
485;SDS011;229;48.734;9.340;2024-03-08T03:04:01;31.63;;;18.63;;
485;SDS011;229;48.734;9.340;2024-03-08T03:06:28;29.63;;;17.80;;
485;SDS011;229;48.734;9.340;2024-03-08T03:08:56;33.08;;;18.83;;
485;SDS011;229;48.734;9.340;2024-03-08T03:11:23;30.17;;;17.23;;
485;SDS011;229;48.734;9.340;2024-03-08T03:13:52;33.55;;;18.20;;
485;SDS011;229;48.734;9.340;2024-03-08T03:16:20;31.40;;;19.48;;
485;SDS011;229;48.734;9.340;2024-03-08T03:18:48;32.78;;;18.48;;
485;SDS011;229;48.734;9.340;2024-03-08T03:21:15;31.45;;;17.65;;
485;SDS011;229;48.734;9.340;2024-03-08T03:23:42;31.13;;;17.85;;
485;SDS011;229;48.734;9.340;2024-03-08T03:26:09;31.30;;;18.80;;
485;SDS011;229;48.734;9.340;2024-03-08T03:28:37;30.35;;;18.33;;
485;SDS011;229;48.734;9.340;2024-03-08T03:31:06;32.58;;;19.30;;
485;SDS011;229;48.734;9.340;2024-03-08T03:33:35;29.17;;;17.83;;
485;SDS011;229;48.734;9.340;2024-03-08T03:36:03;31.42;;;18.60;;
485;SDS011;229;48.734;9.340;2024-03-08T03:38:31;32.65;;;20.27;;
485;SDS011;229;48.734;9.340;2024-03-08T03:40:59;31.60;;;19.02;;
485;SDS011;229;48.734;9.340;2024-03-08T03:43:35;33.65;;;19.38;;
485;SDS011;229;48.734;9.340;2024-03-08T03:46:05;31.02;;;18.13;;
485;SDS011;229;48.734;9.340;2024-03-08T03:48:33;35.97;;;19.23;;
485;SDS011;229;48.734;9.340;2024-03-08T03:51:01;31.90;;;19.05;;
485;SDS011;229;48.734;9.340;2024-03-08T03:53:29;32.55;;;19.23;;
485;SDS011;229;48.734;9.340;2024-03-08T03:55:56;32.97;;;19.48;;
485;SDS011;229;48.734;9.340;2024-03-08T03:58:24;30.95;;;19.50;;
485;SDS011;229;48.734;9.340;2024-03-08T04:00:52;36.72;;;20.27;;
485;SDS011;229;48.734;9.340;2024-03-08T04:03:19;35.65;;;19.35;;
485;SDS011;229;48.734;9.340;2024-03-08T04:05:48;31.38;;;20.10;;
485;SDS011;229;48.734;9.340;2024-03-08T04:08:16;33.50;;;19.30;;
485;SDS011;229;48.734;9.340;2024-03-08T04:10:43;34.28;;;19.77;;
485;SDS011;229;48.734;9.340;2024-03-08T04:13:10;33.90;;;20.80;;
485;SDS011;229;48.734;9.340;2024-03-08T04:15:37;36.92;;;20.65;;
485;SDS011;229;48.734;9.340;2024-03-08T04:18:04;33.92;;;20.15;;
485;SDS011;229;48.734;9.340;2024-03-08T04:20:32;33.28;;;21.05;;
485;SDS011;229;48.734;9.340;2024-03-08T04:23:00;36.30;;;21.27;;
485;SDS011;229;48.734;9.340;2024-03-08T04:25:27;36.92;;;20.38;;
485;SDS011;229;48.734;9.340;2024-03-08T04:27:55;32.47;;;20.48;;
485;SDS011;229;48.734;9.340;2024-03-08T04:30:23;39.58;;;21.98;;
485;SDS011;229;48.734;9.340;2024-03-08T04:32:50;37.03;;;21.50;;
485;SDS011;229;48.734;9.340;2024-03-08T04:35:18;37.92;;;21.60;;
485;SDS011;229;48.734;9.340;2024-03-08T04:37:45;32.00;;;20.95;;
485;SDS011;229;48.734;9.340;2024-03-08T04:40:13;34.10;;;20.27;;
485;SDS011;229;48.734;9.340;2024-03-08T04:42:41;35.25;;;21.40;;
485;SDS011;229;48.734;9.340;2024-03-08T04:45:09;36.45;;;20.58;;
485;SDS011;229;48.734;9.340;2024-03-08T04:47:37;38.75;;;22.60;;
485;SDS011;229;48.734;9.340;2024-03-08T04:50:04;30.58;;;19.17;;
485;SDS011;229;48.734;9.340;2024-03-08T04:52:32;37.40;;;21.55;;
485;SDS011;229;48.734;9.340;2024-03-08T04:54:59;33.47;;;20.10;;
485;SDS011;229;48.734;9.340;2024-03-08T04:57:28;34.83;;;21.33;;
485;SDS011;229;48.734;9.340;2024-03-08T04:59:56;36.30;;;21.65;;
485;SDS011;229;48.734;9.340;2024-03-08T05:02:24;43.30;;;22.77;;
485;SDS011;229;48.734;9.340;2024-03-08T05:04:51;37.58;;;22.25;;
485;SDS011;229;48.734;9.340;2024-03-08T05:07:19;34.50;;;21.55;;
485;SDS011;229;48.734;9.340;2024-03-08T05:09:46;36.55;;;22.42;;
485;SDS011;229;48.734;9.340;2024-03-08T05:12:16;41.38;;;21.50;;
485;SDS011;229;48.734;9.340;2024-03-08T05:14:45;37.25;;;22.38;;
485;SDS011;229;48.734;9.340;2024-03-08T05:17:14;38.92;;;22.40;;
485;SDS011;229;48.734;9.340;2024-03-08T05:19:42;38.88;;;21.92;;
485;SDS011;229;48.734;9.340;2024-03-08T05:22:09;35.35;;;22.00;;
485;SDS011;229;48.734;9.340;2024-03-08T05:24:36;37.97;;;22.23;;
485;SDS011;229;48.734;9.340;2024-03-08T05:27:04;35.83;;;21.88;;
485;SDS011;229;48.734;9.340;2024-03-08T05:29:31;36.20;;;20.48;;
485;SDS011;229;48.734;9.340;2024-03-08T05:31:59;39.65;;;23.35;;
485;SDS011;229;48.734;9.340;2024-03-08T05:34:28;36.40;;;22.25;;
485;SDS011;229;48.734;9.340;2024-03-08T05:36:55;38.33;;;21.85;;
485;SDS011;229;48.734;9.340;2024-03-08T05:39:23;39.75;;;22.52;;
485;SDS011;229;48.734;9.340;2024-03-08T05:41:50;39.53;;;23.55;;
485;SDS011;229;48.734;9.340;2024-03-08T05:44:17;37.30;;;22.52;;
485;SDS011;229;48.734;9.340;2024-03-08T05:46:45;40.92;;;23.17;;
485;SDS011;229;48.734;9.340;2024-03-08T05:49:13;39.97;;;23.75;;
485;SDS011;229;48.734;9.340;2024-03-08T05:51:41;38.60;;;23.50;;
485;SDS011;229;48.734;9.340;2024-03-08T05:54:08;38.70;;;23.90;;
485;SDS011;229;48.734;9.340;2024-03-08T05:56:36;38.72;;;22.38;;
485;SDS011;229;48.734;9.340;2024-03-08T05:59:03;42.13;;;24.45;;
485;SDS011;229;48.734;9.340;2024-03-08T06:01:30;41.20;;;22.98;;
485;SDS011;229;48.734;9.340;2024-03-08T06:04:01;38.45;;;22.70;;
485;SDS011;229;48.734;9.340;2024-03-08T06:06:30;39.40;;;21.55;;
485;SDS011;229;48.734;9.340;2024-03-08T06:08:57;42.80;;;23.95;;
485;SDS011;229;48.734;9.340;2024-03-08T06:11:24;41.80;;;23.17;;
485;SDS011;229;48.734;9.340;2024-03-08T06:13:53;39.10;;;22.67;;
485;SDS011;229;48.734;9.340;2024-03-08T06:16:25;38.80;;;22.40;;
485;SDS011;229;48.734;9.340;2024-03-08T06:18:54;42.05;;;23.38;;
485;SDS011;229;48.734;9.340;2024-03-08T06:21:22;37.72;;;22.08;;
485;SDS011;229;48.734;9.340;2024-03-08T06:23:52;37.38;;;22.50;;
485;SDS011;229;48.734;9.340;2024-03-08T06:26:22;40.67;;;22.85;;
485;SDS011;229;48.734;9.340;2024-03-08T06:28:49;35.80;;;23.25;;
485;SDS011;229;48.734;9.340;2024-03-08T06:31:17;38.35;;;23.13;;
485;SDS011;229;48.734;9.340;2024-03-08T06:33:44;36.47;;;22.83;;
485;SDS011;229;48.734;9.340;2024-03-08T06:36:15;38.08;;;21.85;;
485;SDS011;229;48.734;9.340;2024-03-08T06:38:44;42.08;;;24.52;;
485;SDS011;229;48.734;9.340;2024-03-08T06:41:12;38.88;;;23.60;;
485;SDS011;229;48.734;9.340;2024-03-08T06:43:41;40.10;;;23.45;;
485;SDS011;229;48.734;9.340;2024-03-08T06:46:08;40.97;;;23.40;;
485;SDS011;229;48.734;9.340;2024-03-08T06:48:37;35.10;;;21.35;;
485;SDS011;229;48.734;9.340;2024-03-08T06:51:04;36.53;;;22.35;;
485;SDS011;229;48.734;9.340;2024-03-08T06:53:32;39.47;;;23.70;;
485;SDS011;229;48.734;9.340;2024-03-08T06:56:00;37.20;;;22.08;;
485;SDS011;229;48.734;9.340;2024-03-08T06:58:28;39.00;;;22.55;;
485;SDS011;229;48.734;9.340;2024-03-08T07:00:55;36.58;;;21.95;;
485;SDS011;229;48.734;9.340;2024-03-08T07:03:25;39.33;;;23.15;;
485;SDS011;229;48.734;9.340;2024-03-08T07:05:54;41.95;;;21.45;;
485;SDS011;229;48.734;9.340;2024-03-08T07:08:21;36.80;;;21.77;;
485;SDS011;229;48.734;9.340;2024-03-08T07:10:49;37.13;;;22.50;;
485;SDS011;229;48.734;9.340;2024-03-08T07:13:16;36.28;;;22.42;;
485;SDS011;229;48.734;9.340;2024-03-08T07:15:44;35.33;;;21.60;;
485;SDS011;229;48.734;9.340;2024-03-08T07:18:11;41.08;;;23.70;;
485;SDS011;229;48.734;9.340;2024-03-08T07:20:40;36.35;;;21.70;;
485;SDS011;229;48.734;9.340;2024-03-08T07:23:08;36.63;;;21.13;;
485;SDS011;229;48.734;9.340;2024-03-08T07:25:35;39.33;;;23.00;;
485;SDS011;229;48.734;9.340;2024-03-08T07:28:04;34.42;;;21.00;;
485;SDS011;229;48.734;9.340;2024-03-08T07:30:32;39.58;;;23.20;;
485;SDS011;229;48.734;9.340;2024-03-08T07:33:18;41.75;;;23.05;;
485;SDS011;229;48.734;9.340;2024-03-08T07:35:47;33.35;;;20.20;;
485;SDS011;229;48.734;9.340;2024-03-08T07:38:15;35.03;;;21.55;;
485;SDS011;229;48.734;9.340;2024-03-08T07:40:43;38.60;;;23.23;;
485;SDS011;229;48.734;9.340;2024-03-08T07:43:11;38.00;;;21.10;;
485;SDS011;229;48.734;9.340;2024-03-08T07:45:38;36.05;;;21.10;;
485;SDS011;229;48.734;9.340;2024-03-08T07:48:05;33.15;;;21.30;;
485;SDS011;229;48.734;9.340;2024-03-08T07:50:36;37.17;;;21.58;;
485;SDS011;229;48.734;9.340;2024-03-08T07:53:04;36.60;;;21.75;;
485;SDS011;229;48.734;9.340;2024-03-08T07:55:32;34.47;;;20.13;;
485;SDS011;229;48.734;9.340;2024-03-08T07:58:00;32.42;;;20.95;;
485;SDS011;229;48.734;9.340;2024-03-08T08:00:28;35.13;;;21.38;;
485;SDS011;229;48.734;9.340;2024-03-08T08:02:56;33.95;;;20.67;;
485;SDS011;229;48.734;9.340;2024-03-08T08:05:23;35.35;;;20.92;;
485;SDS011;229;48.734;9.340;2024-03-08T08:07:53;37.42;;;21.25;;
485;SDS011;229;48.734;9.340;2024-03-08T08:10:21;34.22;;;20.83;;
485;SDS011;229;48.734;9.340;2024-03-08T08:12:50;35.67;;;20.30;;
485;SDS011;229;48.734;9.340;2024-03-08T08:15:17;34.83;;;20.38;;
485;SDS011;229;48.734;9.340;2024-03-08T08:17:50;37.15;;;21.27;;
485;SDS011;229;48.734;9.340;2024-03-08T08:20:17;37.65;;;22.38;;
485;SDS011;229;48.734;9.340;2024-03-08T08:22:45;37.55;;;21.58;;
485;SDS011;229;48.734;9.340;2024-03-08T08:25:14;36.53;;;20.27;;
485;SDS011;229;48.734;9.340;2024-03-08T08:27:45;37.47;;;22.40;;
485;SDS011;229;48.734;9.340;2024-03-08T08:30:12;35.63;;;21.55;;
485;SDS011;229;48.734;9.340;2024-03-08T08:32:39;35.35;;;20.17;;
485;SDS011;229;48.734;9.340;2024-03-08T08:35:07;34.05;;;21.25;;
485;SDS011;229;48.734;9.340;2024-03-08T08:37:38;36.45;;;21.85;;
485;SDS011;229;48.734;9.340;2024-03-08T08:40:05;36.35;;;21.23;;
485;SDS011;229;48.734;9.340;2024-03-08T08:42:36;35.63;;;21.25;;
485;SDS011;229;48.734;9.340;2024-03-08T08:45:04;36.33;;;21.05;;
485;SDS011;229;48.734;9.340;2024-03-08T08:47:33;32.92;;;19.85;;
485;SDS011;229;48.734;9.340;2024-03-08T08:50:00;39.90;;;22.10;;
485;SDS011;229;48.734;9.340;2024-03-08T08:52:29;43.33;;;21.77;;
485;SDS011;229;48.734;9.340;2024-03-08T08:54:56;36.53;;;20.90;;
485;SDS011;229;48.734;9.340;2024-03-08T08:57:24;32.92;;;19.60;;
485;SDS011;229;48.734;9.340;2024-03-08T08:59:53;32.13;;;19.73;;
485;SDS011;229;48.734;9.340;2024-03-08T09:02:22;33.78;;;19.30;;
485;SDS011;229;48.734;9.340;2024-03-08T09:04:50;31.83;;;19.55;;
485;SDS011;229;48.734;9.340;2024-03-08T09:07:18;36.25;;;21.00;;
485;SDS011;229;48.734;9.340;2024-03-08T09:09:45;34.20;;;20.73;;
485;SDS011;229;48.734;9.340;2024-03-08T09:12:12;37.25;;;20.80;;
485;SDS011;229;48.734;9.340;2024-03-08T09:14:39;31.98;;;19.05;;
485;SDS011;229;48.734;9.340;2024-03-08T09:17:08;36.50;;;19.58;;
485;SDS011;229;48.734;9.340;2024-03-08T09:19:35;30.90;;;17.30;;
485;SDS011;229;48.734;9.340;2024-03-08T09:22:02;35.53;;;20.42;;
485;SDS011;229;48.734;9.340;2024-03-08T09:24:30;32.85;;;18.85;;
485;SDS011;229;48.734;9.340;2024-03-08T09:26:57;31.13;;;18.83;;
485;SDS011;229;48.734;9.340;2024-03-08T09:29:24;36.55;;;19.98;;
485;SDS011;229;48.734;9.340;2024-03-08T09:31:52;31.40;;;17.63;;
485;SDS011;229;48.734;9.340;2024-03-08T09:34:20;29.50;;;17.83;;
485;SDS011;229;48.734;9.340;2024-03-08T09:36:47;32.97;;;18.80;;
485;SDS011;229;48.734;9.340;2024-03-08T09:39:17;32.45;;;18.98;;
485;SDS011;229;48.734;9.340;2024-03-08T09:41:46;31.02;;;17.77;;
485;SDS011;229;48.734;9.340;2024-03-08T09:44:16;31.20;;;18.55;;
485;SDS011;229;48.734;9.340;2024-03-08T09:46:45;30.92;;;18.05;;
485;SDS011;229;48.734;9.340;2024-03-08T09:49:12;30.05;;;18.08;;
485;SDS011;229;48.734;9.340;2024-03-08T09:51:41;33.97;;;18.92;;
485;SDS011;229;48.734;9.340;2024-03-08T09:54:08;31.08;;;17.60;;
485;SDS011;229;48.734;9.340;2024-03-08T09:56:36;32.85;;;18.92;;
485;SDS011;229;48.734;9.340;2024-03-08T09:59:05;30.33;;;18.92;;
485;SDS011;229;48.734;9.340;2024-03-08T10:01:57;29.98;;;18.60;;
485;SDS011;229;48.734;9.340;2024-03-08T10:04:25;34.63;;;17.92;;
485;SDS011;229;48.734;9.340;2024-03-08T10:06:54;31.00;;;18.50;;
485;SDS011;229;48.734;9.340;2024-03-08T10:09:24;27.10;;;17.85;;
485;SDS011;229;48.734;9.340;2024-03-08T10:11:53;30.38;;;17.25;;
485;SDS011;229;48.734;9.340;2024-03-08T10:14:20;28.40;;;17.13;;
485;SDS011;229;48.734;9.340;2024-03-08T10:16:48;30.52;;;18.05;;
485;SDS011;229;48.734;9.340;2024-03-08T10:19:15;33.28;;;19.08;;
485;SDS011;229;48.734;9.340;2024-03-08T10:21:48;31.20;;;17.88;;
485;SDS011;229;48.734;9.340;2024-03-08T10:24:19;26.95;;;17.13;;
485;SDS011;229;48.734;9.340;2024-03-08T10:26:47;31.13;;;17.98;;
485;SDS011;229;48.734;9.340;2024-03-08T10:29:14;29.20;;;18.23;;
485;SDS011;229;48.734;9.340;2024-03-08T10:31:42;31.02;;;18.65;;
485;SDS011;229;48.734;9.340;2024-03-08T10:34:10;31.08;;;18.08;;
485;SDS011;229;48.734;9.340;2024-03-08T10:36:37;33.53;;;17.80;;
485;SDS011;229;48.734;9.340;2024-03-08T10:39:06;30.95;;;17.60;;
485;SDS011;229;48.734;9.340;2024-03-08T10:41:39;32.45;;;19.48;;
485;SDS011;229;48.734;9.340;2024-03-08T10:44:12;32.15;;;18.48;;
485;SDS011;229;48.734;9.340;2024-03-08T10:46:48;31.67;;;16.27;;
485;SDS011;229;48.734;9.340;2024-03-08T10:49:20;34.60;;;18.10;;
485;SDS011;229;48.734;9.340;2024-03-08T10:51:52;28.63;;;17.55;;
485;SDS011;229;48.734;9.340;2024-03-08T10:54:19;35.63;;;18.00;;
485;SDS011;229;48.734;9.340;2024-03-08T10:56:48;29.63;;;17.77;;
485;SDS011;229;48.734;9.340;2024-03-08T10:59:16;28.70;;;17.48;;
485;SDS011;229;48.734;9.340;2024-03-08T11:01:44;30.35;;;18.20;;
485;SDS011;229;48.734;9.340;2024-03-08T11:04:11;30.30;;;17.13;;
485;SDS011;229;48.734;9.340;2024-03-08T11:06:41;31.77;;;17.88;;
485;SDS011;229;48.734;9.340;2024-03-08T11:09:11;30.10;;;17.75;;
485;SDS011;229;48.734;9.340;2024-03-08T11:14:44;31.50;;;17.63;;
485;SDS011;229;48.734;9.340;2024-03-08T11:17:15;32.90;;;17.85;;
485;SDS011;229;48.734;9.340;2024-03-08T11:19:45;27.58;;;17.08;;
485;SDS011;229;48.734;9.340;2024-03-08T11:22:20;27.98;;;16.75;;
485;SDS011;229;48.734;9.340;2024-03-08T11:24:48;31.08;;;17.25;;
485;SDS011;229;48.734;9.340;2024-03-08T11:27:15;31.83;;;18.25;;
485;SDS011;229;48.734;9.340;2024-03-08T11:29:44;29.98;;;17.15;;
485;SDS011;229;48.734;9.340;2024-03-08T11:32:11;29.05;;;17.25;;
485;SDS011;229;48.734;9.340;2024-03-08T11:34:39;29.83;;;17.88;;
485;SDS011;229;48.734;9.340;2024-03-08T11:37:10;31.25;;;18.48;;
485;SDS011;229;48.734;9.340;2024-03-08T11:39:38;27.50;;;16.88;;
485;SDS011;229;48.734;9.340;2024-03-08T11:42:06;31.80;;;18.33;;
485;SDS011;229;48.734;9.340;2024-03-08T11:44:33;33.53;;;19.13;;
485;SDS011;229;48.734;9.340;2024-03-08T11:47:02;35.72;;;18.90;;
485;SDS011;229;48.734;9.340;2024-03-08T11:49:31;34.42;;;18.10;;
485;SDS011;229;48.734;9.340;2024-03-08T11:51:59;32.28;;;17.52;;
485;SDS011;229;48.734;9.340;2024-03-08T11:54:28;33.28;;;18.95;;
485;SDS011;229;48.734;9.340;2024-03-08T11:56:55;33.60;;;18.13;;
485;SDS011;229;48.734;9.340;2024-03-08T11:59:25;36.10;;;19.60;;
485;SDS011;229;48.734;9.340;2024-03-08T12:01:58;34.83;;;19.45;;
485;SDS011;229;48.734;9.340;2024-03-08T12:04:28;30.42;;;18.30;;
485;SDS011;229;48.734;9.340;2024-03-08T12:06:56;33.78;;;18.88;;
485;SDS011;229;48.734;9.340;2024-03-08T12:09:23;31.63;;;19.30;;
485;SDS011;229;48.734;9.340;2024-03-08T12:11:50;32.22;;;17.85;;
485;SDS011;229;48.734;9.340;2024-03-08T12:14:17;33.97;;;18.45;;
485;SDS011;229;48.734;9.340;2024-03-08T12:16:45;35.92;;;19.85;;
485;SDS011;229;48.734;9.340;2024-03-08T12:19:13;33.13;;;17.85;;
485;SDS011;229;48.734;9.340;2024-03-08T12:21:43;32.88;;;19.42;;
485;SDS011;229;48.734;9.340;2024-03-08T12:24:14;33.75;;;18.73;;
485;SDS011;229;48.734;9.340;2024-03-08T12:26:44;36.85;;;19.90;;
485;SDS011;229;48.734;9.340;2024-03-08T12:29:16;37.17;;;19.98;;
485;SDS011;229;48.734;9.340;2024-03-08T12:31:45;37.85;;;18.23;;
485;SDS011;229;48.734;9.340;2024-03-08T12:34:12;35.25;;;19.73;;
485;SDS011;229;48.734;9.340;2024-03-08T12:36:48;35.40;;;19.10;;
485;SDS011;229;48.734;9.340;2024-03-08T12:39:17;33.15;;;18.58;;
485;SDS011;229;48.734;9.340;2024-03-08T12:41:47;32.35;;;18.10;;
485;SDS011;229;48.734;9.340;2024-03-08T12:44:16;33.53;;;19.00;;
485;SDS011;229;48.734;9.340;2024-03-08T12:46:44;31.65;;;17.92;;
485;SDS011;229;48.734;9.340;2024-03-08T12:49:11;32.45;;;18.20;;
485;SDS011;229;48.734;9.340;2024-03-08T12:51:42;33.22;;;18.90;;
485;SDS011;229;48.734;9.340;2024-03-08T12:54:10;32.58;;;18.02;;
485;SDS011;229;48.734;9.340;2024-03-08T12:56:38;32.20;;;19.05;;
485;SDS011;229;48.734;9.340;2024-03-08T12:59:05;35.25;;;19.42;;
485;SDS011;229;48.734;9.340;2024-03-08T13:01:33;31.23;;;18.00;;
485;SDS011;229;48.734;9.340;2024-03-08T13:04:02;34.08;;;17.80;;
485;SDS011;229;48.734;9.340;2024-03-08T13:06:31;35.33;;;18.65;;
485;SDS011;229;48.734;9.340;2024-03-08T13:08:58;35.53;;;19.95;;
485;SDS011;229;48.734;9.340;2024-03-08T13:11:31;33.20;;;17.95;;
485;SDS011;229;48.734;9.340;2024-03-08T13:14:01;36.50;;;20.13;;
485;SDS011;229;48.734;9.340;2024-03-08T13:16:28;36.90;;;19.35;;
485;SDS011;229;48.734;9.340;2024-03-08T13:18:56;37.25;;;18.98;;
485;SDS011;229;48.734;9.340;2024-03-08T13:21:23;35.38;;;19.02;;
485;SDS011;229;48.734;9.340;2024-03-08T13:23:50;37.33;;;19.75;;
485;SDS011;229;48.734;9.340;2024-03-08T13:26:18;37.88;;;19.10;;
485;SDS011;229;48.734;9.340;2024-03-08T13:28:47;28.10;;;17.25;;
485;SDS011;229;48.734;9.340;2024-03-08T13:31:18;33.50;;;18.80;;
485;SDS011;229;48.734;9.340;2024-03-08T13:33:45;34.10;;;18.67;;
485;SDS011;229;48.734;9.340;2024-03-08T13:36:13;33.03;;;19.60;;
485;SDS011;229;48.734;9.340;2024-03-08T13:38:41;29.58;;;17.20;;
485;SDS011;229;48.734;9.340;2024-03-08T13:41:09;31.50;;;17.70;;
485;SDS011;229;48.734;9.340;2024-03-08T13:43:39;35.22;;;19.63;;
485;SDS011;229;48.734;9.340;2024-03-08T13:46:08;37.72;;;20.15;;
485;SDS011;229;48.734;9.340;2024-03-08T13:48:36;38.70;;;18.90;;
485;SDS011;229;48.734;9.340;2024-03-08T13:51:03;30.35;;;18.27;;
485;SDS011;229;48.734;9.340;2024-03-08T13:53:31;33.22;;;18.00;;
485;SDS011;229;48.734;9.340;2024-03-08T13:55:59;37.28;;;19.63;;
485;SDS011;229;48.734;9.340;2024-03-08T13:58:27;34.28;;;18.25;;
485;SDS011;229;48.734;9.340;2024-03-08T14:00:54;34.55;;;19.27;;
485;SDS011;229;48.734;9.340;2024-03-08T14:03:22;30.35;;;17.50;;
485;SDS011;229;48.734;9.340;2024-03-08T14:05:50;33.45;;;18.35;;
485;SDS011;229;48.734;9.340;2024-03-08T14:08:17;37.63;;;18.90;;
485;SDS011;229;48.734;9.340;2024-03-08T14:10:44;33.88;;;19.15;;
485;SDS011;229;48.734;9.340;2024-03-08T14:13:12;26.38;;;16.85;;
485;SDS011;229;48.734;9.340;2024-03-08T14:15:41;31.30;;;17.88;;
485;SDS011;229;48.734;9.340;2024-03-08T14:18:11;37.28;;;18.73;;
485;SDS011;229;48.734;9.340;2024-03-08T14:20:40;33.90;;;19.35;;
485;SDS011;229;48.734;9.340;2024-03-08T14:23:07;32.38;;;18.52;;
485;SDS011;229;48.734;9.340;2024-03-08T14:25:35;36.03;;;18.45;;
485;SDS011;229;48.734;9.340;2024-03-08T14:28:02;34.55;;;20.02;;
485;SDS011;229;48.734;9.340;2024-03-08T14:30:32;37.35;;;18.80;;
485;SDS011;229;48.734;9.340;2024-03-08T14:33:00;34.65;;;18.52;;
485;SDS011;229;48.734;9.340;2024-03-08T14:35:27;31.25;;;17.75;;
485;SDS011;229;48.734;9.340;2024-03-08T14:37:56;27.85;;;17.00;;
485;SDS011;229;48.734;9.340;2024-03-08T14:40:25;30.30;;;16.75;;
485;SDS011;229;48.734;9.340;2024-03-08T14:42:52;34.58;;;18.30;;
485;SDS011;229;48.734;9.340;2024-03-08T14:45:21;33.42;;;18.00;;
485;SDS011;229;48.734;9.340;2024-03-08T14:47:49;33.65;;;17.98;;
485;SDS011;229;48.734;9.340;2024-03-08T14:50:17;28.55;;;17.38;;
485;SDS011;229;48.734;9.340;2024-03-08T14:52:44;32.40;;;17.90;;
485;SDS011;229;48.734;9.340;2024-03-08T14:55:14;30.17;;;17.77;;
485;SDS011;229;48.734;9.340;2024-03-08T14:57:42;30.15;;;17.75;;
485;SDS011;229;48.734;9.340;2024-03-08T15:00:11;28.08;;;16.35;;
485;SDS011;229;48.734;9.340;2024-03-08T15:02:42;32.58;;;17.88;;
485;SDS011;229;48.734;9.340;2024-03-08T15:05:09;29.42;;;16.75;;
485;SDS011;229;48.734;9.340;2024-03-08T15:07:38;30.85;;;17.92;;
485;SDS011;229;48.734;9.340;2024-03-08T15:10:06;30.23;;;16.45;;
485;SDS011;229;48.734;9.340;2024-03-08T15:12:38;30.55;;;17.40;;
485;SDS011;229;48.734;9.340;2024-03-08T15:15:06;29.75;;;16.65;;
485;SDS011;229;48.734;9.340;2024-03-08T15:17:35;31.40;;;17.40;;
485;SDS011;229;48.734;9.340;2024-03-08T15:20:05;29.40;;;17.27;;
485;SDS011;229;48.734;9.340;2024-03-08T15:22:40;33.50;;;16.98;;
485;SDS011;229;48.734;9.340;2024-03-08T15:25:07;31.48;;;17.48;;